createdAt,value
2018-03-27T00:01:08.295Z,14.90
2018-03-27T00:03:35.810Z,16.90
2018-03-27T00:06:03.293Z,15.07
2018-03-27T00:08:30.823Z,12.50
2018-03-27T00:10:58.320Z,13.17
2018-03-27T00:13:25.788Z,11.70
2018-03-27T00:15:53.291Z,12.80
2018-03-27T00:18:20.838Z,15.20
2018-03-27T00:20:48.353Z,14.60
2018-03-27T00:23:15.835Z,10.50
2018-03-27T00:25:43.331Z,12.53
2018-03-27T00:28:22.674Z,14.73
2018-03-27T00:31:01.892Z,13.40
2018-03-27T00:33:41.182Z,15.83
2018-03-27T00:36:20.567Z,12.20
2018-03-27T00:38:59.810Z,12.67
2018-03-27T00:44:35.367Z,11.40
2018-03-27T00:47:02.881Z,10.93
2018-03-27T00:49:31.132Z,14.47
2018-03-27T00:51:58.664Z,13.73
2018-03-27T00:54:26.262Z,14.07
2018-03-27T00:56:53.891Z,11.90
2018-03-27T00:59:21.448Z,12.30
2018-03-27T01:01:48.989Z,13.90
2018-03-27T01:04:16.515Z,13.07
2018-03-27T01:06:44.254Z,18.43
2018-03-27T01:09:11.768Z,15.97
2018-03-27T01:11:39.270Z,14.00
2018-03-27T01:14:06.735Z,18.50
2018-03-27T01:16:34.248Z,13.13
2018-03-27T01:19:01.733Z,15.93
2018-03-27T01:21:29.225Z,14.87
2018-03-27T01:23:57.487Z,12.80
2018-03-27T01:26:24.983Z,13.80
2018-03-27T01:28:52.458Z,16.67
2018-03-27T01:31:20.696Z,15.57
2018-03-27T01:33:48.974Z,15.47
2018-03-27T01:36:17.206Z,16.37
2018-03-27T01:38:45.291Z,13.03
2018-03-27T01:41:12.763Z,16.33
2018-03-27T01:43:40.259Z,13.53
2018-03-27T01:46:08.767Z,15.13
2018-03-27T01:48:36.296Z,11.90
2018-03-27T01:51:03.786Z,15.50
2018-03-27T01:53:31.267Z,12.87
2018-03-27T01:55:58.767Z,14.03
2018-03-27T01:58:26.270Z,14.97
2018-03-27T02:00:53.764Z,14.27
2018-03-27T02:03:22.018Z,17.53
2018-03-27T02:05:49.528Z,11.10
2018-03-27T02:08:16.992Z,17.23
2018-03-27T02:10:43.974Z,13.27
2018-03-27T02:13:17.096Z,15.63
2018-03-27T02:15:50.324Z,14.07
2018-03-27T02:18:23.405Z,14.23
2018-03-27T02:20:56.622Z,12.10
2018-03-27T02:23:41.966Z,14.10
2018-03-27T02:26:09.462Z,16.83
2018-03-27T02:28:36.943Z,17.53
2018-03-27T02:31:05.183Z,12.13
2018-03-27T02:33:32.657Z,14.97
2018-03-27T02:36:00.135Z,15.03
2018-03-27T02:38:27.644Z,14.77
2018-03-27T02:40:55.129Z,12.40
2018-03-27T02:43:22.598Z,14.70
2018-03-27T02:45:50.105Z,12.03
2018-03-27T02:48:17.588Z,12.30
2018-03-27T02:50:45.793Z,11.73
2018-03-27T02:53:14.044Z,14.30
2018-03-27T02:55:41.528Z,13.50
2018-03-27T02:58:09.032Z,16.73
2018-03-27T03:00:37.396Z,13.30
2018-03-27T03:03:04.924Z,11.90
2018-03-27T03:05:32.426Z,14.13
2018-03-27T03:07:59.897Z,15.60
2018-03-27T03:10:27.393Z,13.73
2018-03-27T03:12:54.890Z,17.77
2018-03-27T03:15:22.410Z,12.93
2018-03-27T03:17:49.872Z,14.13
2018-03-27T03:20:17.351Z,14.37
2018-03-27T03:22:44.864Z,15.97
2018-03-27T03:25:12.351Z,19.30
2018-03-27T03:27:40.583Z,14.60
2018-03-27T03:30:08.833Z,15.33
2018-03-27T03:32:36.332Z,13.60
2018-03-27T03:35:03.815Z,15.47
2018-03-27T03:37:32.058Z,18.23
2018-03-27T03:39:59.538Z,14.97
2018-03-27T03:42:27.787Z,16.53
2018-03-27T03:44:55.255Z,15.37
2018-03-27T03:47:22.995Z,16.27
2018-03-27T03:49:50.466Z,16.13
2018-03-27T03:52:17.972Z,14.43
2018-03-27T03:54:45.488Z,11.30
2018-03-27T03:57:13.567Z,14.77
2018-03-27T03:59:41.902Z,17.47
2018-03-27T04:02:09.431Z,15.27
2018-03-27T04:04:36.937Z,14.60
2018-03-27T04:07:04.411Z,14.47
2018-03-27T04:09:31.921Z,14.03
2018-03-27T04:11:59.413Z,14.37
2018-03-27T04:14:26.904Z,11.87
2018-03-27T04:16:55.396Z,15.40
2018-03-27T04:19:22.863Z,17.10
2018-03-27T04:21:50.360Z,12.80
2018-03-27T04:24:18.641Z,14.70
2018-03-27T04:26:46.133Z,13.67
2018-03-27T04:29:13.631Z,16.93
2018-03-27T04:31:42.045Z,13.17
2018-03-27T04:34:09.508Z,13.70
2018-03-27T04:36:37.011Z,16.77
2018-03-27T04:39:04.715Z,12.23
2018-03-27T04:41:32.196Z,13.90
2018-03-27T04:43:59.667Z,16.83
2018-03-27T04:46:28.933Z,12.83
2018-03-27T04:48:56.458Z,17.07
2018-03-27T04:51:23.955Z,17.20
2018-03-27T04:53:51.442Z,12.57
2018-03-27T04:56:19.707Z,12.77
2018-03-27T04:58:48.000Z,15.93
2018-03-27T05:01:15.525Z,15.50
2018-03-27T05:03:43.019Z,15.23
2018-03-27T05:06:10.576Z,16.23
2018-03-27T05:08:38.051Z,14.80
2018-03-27T05:11:05.559Z,18.57
2018-03-27T05:13:33.069Z,17.57
2018-03-27T05:16:00.826Z,13.40
2018-03-27T05:18:28.325Z,17.87
2018-03-27T05:20:55.802Z,17.10
2018-03-27T05:23:23.283Z,16.67
2018-03-27T05:25:51.525Z,20.87
2018-03-27T05:28:20.843Z,21.30
2018-03-27T05:30:49.120Z,20.23
2018-03-27T05:33:17.394Z,18.70
2018-03-27T05:35:44.878Z,19.97
2018-03-27T05:38:12.398Z,16.93
2018-03-27T05:40:40.657Z,26.20
2018-03-27T05:43:08.184Z,19.00
2018-03-27T05:45:35.680Z,19.03
2018-03-27T05:48:03.183Z,11.47
2018-03-27T05:50:32.232Z,28.30
2018-03-27T05:52:59.716Z,26.40
2018-03-27T05:55:27.231Z,21.00
2018-03-27T05:57:54.735Z,18.60
2018-03-27T06:00:22.216Z,18.20
2018-03-27T06:02:49.801Z,22.63
2018-03-27T06:05:17.289Z,14.40
2018-03-27T06:07:44.783Z,14.47
2018-03-27T06:10:12.298Z,14.67
2018-03-27T06:12:39.766Z,13.93
2018-03-27T06:15:07.532Z,12.30
2018-03-27T06:17:35.031Z,11.23
2018-03-27T06:20:02.546Z,13.00
2018-03-27T06:22:30.040Z,12.63
2018-03-27T06:24:57.546Z,14.07
2018-03-27T06:27:25.096Z,12.40
2018-03-27T06:29:52.572Z,11.93
2018-03-27T06:32:20.074Z,12.07
2018-03-27T06:34:47.762Z,11.83
2018-03-27T06:37:15.241Z,9.67
2018-03-27T06:39:42.776Z,14.23
2018-03-27T06:42:10.343Z,11.20
2018-03-27T06:44:38.530Z,12.10
2018-03-27T06:47:06.067Z,12.10
2018-03-27T06:49:33.571Z,12.40
2018-03-27T06:52:01.059Z,13.40
2018-03-27T06:54:28.626Z,12.97
2018-03-27T06:56:56.667Z,12.37
2018-03-27T06:59:24.153Z,14.80
2018-03-27T07:01:51.647Z,11.40
2018-03-27T07:04:22.766Z,13.47
2018-03-27T07:06:50.255Z,17.23
2018-03-27T07:09:17.780Z,14.40
2018-03-27T07:11:45.272Z,16.90
2018-03-27T07:14:12.766Z,13.00
2018-03-27T07:16:41.039Z,14.87
2018-03-27T07:19:08.563Z,15.50
2018-03-27T07:21:36.060Z,12.53
2018-03-27T07:24:04.308Z,12.70
2018-03-27T07:26:32.063Z,16.80
2018-03-27T07:28:59.566Z,13.90
2018-03-27T07:31:27.059Z,16.87
2018-03-27T07:33:54.559Z,12.40
2018-03-27T07:36:22.039Z,15.03
2018-03-27T07:38:49.517Z,14.53
2018-03-27T07:41:16.991Z,16.13
2018-03-27T07:43:44.475Z,17.00
2018-03-27T07:46:11.991Z,13.30
2018-03-27T07:48:39.462Z,16.73
2018-03-27T07:51:06.946Z,17.20
2018-03-27T07:53:34.430Z,20.47
2018-03-27T07:56:01.920Z,18.43
2018-03-27T07:58:29.471Z,13.13
2018-03-27T08:00:56.942Z,12.90
2018-03-27T08:03:24.413Z,14.10
2018-03-27T08:05:51.909Z,21.73
2018-03-27T08:08:19.386Z,17.20
2018-03-27T08:10:46.895Z,13.67
2018-03-27T08:13:14.333Z,16.60
2018-03-27T08:15:41.819Z,21.87
2018-03-27T08:18:09.320Z,20.20
2018-03-27T08:20:36.809Z,17.80
2018-03-27T08:23:04.309Z,22.80
2018-03-27T08:25:32.576Z,18.80
2018-03-27T08:28:00.058Z,18.90
2018-03-27T08:30:28.419Z,18.70
2018-03-27T08:32:55.921Z,20.20
2018-03-27T08:35:23.433Z,16.37
2018-03-27T08:37:51.669Z,20.53
2018-03-27T08:40:19.954Z,17.87
2018-03-27T08:42:47.463Z,20.23
2018-03-27T08:45:14.934Z,17.10
2018-03-27T08:47:42.447Z,16.10
2018-03-27T08:50:09.953Z,13.47
2018-03-27T08:52:37.433Z,25.27
2018-03-27T08:55:04.972Z,13.70
2018-03-27T08:57:32.457Z,15.80
2018-03-27T08:59:59.942Z,12.70
2018-03-27T09:02:28.205Z,13.33
2018-03-27T09:04:55.688Z,14.13
2018-03-27T09:07:23.168Z,13.33
2018-03-27T09:09:50.652Z,16.80
2018-03-27T09:12:18.163Z,18.00
2018-03-27T09:14:46.407Z,15.73
2018-03-27T09:17:14.659Z,19.30
2018-03-27T09:19:42.159Z,16.97
2018-03-27T09:22:09.646Z,14.23
2018-03-27T09:24:37.132Z,19.53
2018-03-27T09:27:04.604Z,15.93
2018-03-27T09:29:32.068Z,16.73
2018-03-27T09:31:59.554Z,21.80
2018-03-27T09:34:27.014Z,16.17
2018-03-27T09:36:54.525Z,22.40
2018-03-27T09:39:21.989Z,16.27
2018-03-27T09:41:49.497Z,22.57
2018-03-27T09:44:17.740Z,19.70
2018-03-27T09:46:45.249Z,18.43
2018-03-27T09:49:12.742Z,20.53
2018-03-27T09:51:40.274Z,17.80
2018-03-27T09:54:07.778Z,15.97
2018-03-27T09:56:35.257Z,16.70
2018-03-27T09:59:03.752Z,20.40
2018-03-27T10:01:31.467Z,17.97
2018-03-27T10:03:58.950Z,22.60
2018-03-27T10:06:27.206Z,20.70
2018-03-27T10:08:54.738Z,18.77
2018-03-27T10:11:22.170Z,21.17
2018-03-27T10:13:49.669Z,19.93
2018-03-27T10:16:17.182Z,18.70
2018-03-27T10:18:44.695Z,25.17
2018-03-27T10:21:12.502Z,23.60
2018-03-27T10:23:39.976Z,19.50
2018-03-27T10:26:07.457Z,22.90
2018-03-27T10:28:34.941Z,23.63
2018-03-27T10:31:02.447Z,21.50
2018-03-27T10:33:29.940Z,24.03
2018-03-27T10:35:57.431Z,21.37
2018-03-27T10:38:25.692Z,22.80
2018-03-27T10:40:53.195Z,21.33
2018-03-27T10:43:20.738Z,21.90
2018-03-27T10:45:48.207Z,21.73
2018-03-27T10:48:15.673Z,24.00
2018-03-27T10:50:43.153Z,19.13
2018-03-27T10:53:10.888Z,24.13
2018-03-27T10:55:38.413Z,25.87
2018-03-27T10:58:05.873Z,29.87
2018-03-27T11:00:34.124Z,25.43
2018-03-27T11:03:01.630Z,21.80
2018-03-27T11:05:29.149Z,26.60
2018-03-27T11:07:56.659Z,26.03
2018-03-27T11:10:24.137Z,26.70
2018-03-27T11:12:51.614Z,29.20
2018-03-27T11:15:19.124Z,28.17
2018-03-27T11:17:46.616Z,31.17
2018-03-27T11:20:14.142Z,28.50
2018-03-27T11:22:41.676Z,30.53
2018-03-27T11:25:09.156Z,29.20
2018-03-27T11:27:36.644Z,35.20
2018-03-27T11:30:04.125Z,35.30
2018-03-27T11:32:31.621Z,27.63
2018-03-27T11:34:59.093Z,35.77
2018-03-27T11:37:26.581Z,37.87
2018-03-27T11:39:54.099Z,32.97
2018-03-27T11:42:21.602Z,32.60
2018-03-27T11:44:49.118Z,32.50
2018-03-27T11:47:16.589Z,37.50
2018-03-27T11:49:44.067Z,31.47
2018-03-27T11:52:11.576Z,36.97
2018-03-27T11:54:39.085Z,38.53
2018-03-27T11:57:06.592Z,30.10
2018-03-27T11:59:34.073Z,30.70
2018-03-27T12:02:01.556Z,35.03
2018-03-27T12:04:29.065Z,27.23
2018-03-27T12:06:56.546Z,29.77
2018-03-27T12:09:24.077Z,33.83
2018-03-27T12:11:52.096Z,36.27
2018-03-27T12:14:19.563Z,33.10
2018-03-27T12:16:47.045Z,35.57
2018-03-27T12:19:15.463Z,33.50
2018-03-27T12:21:42.969Z,31.77
2018-03-27T12:24:11.394Z,39.90
2018-03-27T12:26:38.887Z,37.70
2018-03-27T12:29:06.377Z,35.53
2018-03-27T12:31:34.668Z,35.27
2018-03-27T12:34:02.162Z,36.90
2018-03-27T12:36:29.682Z,36.67
2018-03-27T12:38:57.133Z,40.80
2018-03-27T12:41:24.627Z,47.77
2018-03-27T12:43:52.124Z,38.73
2018-03-27T12:46:19.606Z,38.87
2018-03-27T12:48:47.854Z,38.73
2018-03-27T12:51:15.335Z,39.70
2018-03-27T12:53:43.814Z,43.33
2018-03-27T12:56:12.075Z,43.43
2018-03-27T12:58:39.555Z,41.60
2018-03-27T13:01:07.041Z,42.13
2018-03-27T13:03:34.527Z,37.30
2018-03-27T13:06:02.027Z,40.73
2018-03-27T13:08:30.269Z,43.50
2018-03-27T13:10:57.756Z,42.07
2018-03-27T13:13:25.240Z,37.90
2018-03-27T13:15:52.717Z,36.00
2018-03-27T13:18:20.206Z,46.83
2018-03-27T13:20:47.665Z,41.90
2018-03-27T13:23:15.943Z,39.50
2018-03-27T13:25:43.414Z,39.30
2018-03-27T13:28:10.903Z,42.13
2018-03-27T13:30:38.401Z,41.80
2018-03-27T13:33:05.877Z,42.20
2018-03-27T13:35:41.023Z,39.73
2018-03-27T13:38:08.503Z,38.87
2018-03-27T13:40:35.995Z,35.03
2018-03-27T13:43:03.493Z,33.23
2018-03-27T13:45:31.771Z,31.43
2018-03-27T13:47:59.270Z,33.10
2018-03-27T13:50:26.767Z,27.20
2018-03-27T13:52:54.250Z,29.80
2018-03-27T13:55:21.770Z,28.47
2018-03-27T13:57:49.263Z,27.93
2018-03-27T14:00:17.585Z,29.57
2018-03-27T14:02:45.016Z,22.50
2018-03-27T14:05:12.473Z,25.30
2018-03-27T14:07:39.973Z,28.20
2018-03-27T14:10:07.460Z,27.37
2018-03-27T14:12:34.947Z,24.60
2018-03-27T14:15:02.466Z,28.70
2018-03-27T14:17:29.948Z,26.60
2018-03-27T14:19:57.452Z,28.33
2018-03-27T14:22:24.934Z,30.83
2018-03-27T14:24:52.404Z,34.97
2018-03-27T14:27:21.309Z,33.03
2018-03-27T14:29:48.773Z,31.20
2018-03-27T14:32:16.299Z,32.97
2018-03-27T14:34:43.781Z,36.50
2018-03-27T14:37:11.270Z,30.87
2018-03-27T14:39:38.740Z,37.13
2018-03-27T14:42:06.233Z,32.43
2018-03-27T14:44:33.751Z,33.00
2018-03-27T14:47:01.461Z,23.67
2018-03-27T14:49:29.749Z,29.17
2018-03-27T14:51:58.020Z,35.03
2018-03-27T14:54:25.570Z,33.30
2018-03-27T14:56:53.063Z,28.70
2018-03-27T14:59:20.551Z,33.03
2018-03-27T15:01:48.077Z,38.07
2018-03-27T15:04:15.560Z,40.80
2018-03-27T15:06:43.063Z,40.00
2018-03-27T15:09:11.341Z,38.03
2018-03-27T15:11:39.602Z,35.30
2018-03-27T15:14:07.134Z,36.50
2018-03-27T15:16:34.639Z,36.87
2018-03-27T15:19:02.132Z,40.73
2018-03-27T15:21:29.633Z,40.17
2018-03-27T15:23:57.112Z,37.20
2018-03-27T15:26:24.635Z,40.93
2018-03-27T15:28:52.164Z,36.90
2018-03-27T15:31:19.648Z,36.83
2018-03-27T15:33:47.148Z,43.17
2018-03-27T15:36:14.638Z,48.97
2018-03-27T15:38:42.150Z,38.37
2018-03-27T15:41:10.400Z,38.80
2018-03-27T15:43:38.648Z,36.47
2018-03-27T15:46:06.145Z,36.87
2018-03-27T15:48:33.638Z,48.40
2018-03-27T15:51:01.161Z,66.97
2018-03-27T15:53:29.416Z,58.07
2018-03-27T15:55:56.897Z,39.87
2018-03-27T15:58:24.450Z,33.70
2018-03-27T16:00:52.753Z,38.37
2018-03-27T16:03:20.270Z,42.30
2018-03-27T16:05:47.937Z,35.77
2018-03-27T16:08:22.021Z,33.77
2018-03-27T16:10:49.556Z,33.97
2018-03-27T16:13:17.096Z,36.50
2018-03-27T16:15:44.552Z,36.53
2018-03-27T16:18:12.290Z,51.33
2018-03-27T16:20:39.801Z,35.70
2018-03-27T16:23:08.044Z,40.93
2018-03-27T16:25:36.312Z,38.20
2018-03-27T16:28:04.574Z,33.73
2018-03-27T16:30:32.086Z,106.23
2018-03-27T16:32:59.609Z,34.87
2018-03-27T16:35:27.138Z,35.33
2018-03-27T16:37:54.665Z,45.60
2018-03-27T16:40:22.143Z,35.03
2018-03-27T16:42:49.646Z,40.00
2018-03-27T16:45:17.895Z,40.50
2018-03-27T16:47:45.407Z,42.30
2018-03-27T16:50:12.916Z,41.20
2018-03-27T16:52:40.410Z,32.63
2018-03-27T16:55:07.906Z,35.23
2018-03-27T16:57:35.403Z,36.00
2018-03-27T17:00:02.929Z,37.43
2018-03-27T17:02:30.693Z,43.20
2018-03-27T17:04:58.543Z,39.97
2018-03-27T17:07:26.052Z,45.83
2018-03-27T17:09:53.581Z,52.10
2018-03-27T17:12:21.103Z,44.73
2018-03-27T17:14:48.585Z,39.40
2018-03-27T17:20:02.841Z,42.27
2018-03-27T17:22:30.330Z,45.57
2018-03-27T17:24:57.837Z,46.30
2018-03-27T17:27:31.913Z,45.67
2018-03-27T17:29:59.417Z,48.00
2018-03-27T17:32:27.444Z,44.50
2018-03-27T17:34:55.741Z,34.57
2018-03-27T17:37:23.254Z,42.00
2018-03-27T17:39:50.753Z,34.20
2018-03-27T17:42:18.282Z,47.73
2018-03-27T17:44:45.769Z,43.10
2018-03-27T17:47:14.034Z,40.43
2018-03-27T17:49:42.304Z,36.63
2018-03-27T17:52:10.588Z,41.23
2018-03-27T17:54:38.897Z,40.87
2018-03-27T17:57:06.388Z,39.23
2018-03-27T17:59:33.878Z,45.00
2018-03-27T18:02:01.429Z,44.20
2018-03-27T18:04:29.730Z,50.03
2018-03-27T18:06:57.626Z,47.00
2018-03-27T18:09:25.119Z,35.03
2018-03-27T18:11:52.619Z,42.33
2018-03-27T18:14:20.141Z,42.00
2018-03-27T18:16:47.728Z,38.27
2018-03-27T18:19:15.249Z,34.80
2018-03-27T18:21:42.756Z,43.33
2018-03-27T18:24:10.249Z,40.60
2018-03-27T18:26:37.762Z,42.80
2018-03-27T18:29:05.258Z,48.07
2018-03-27T18:31:32.777Z,37.33
2018-03-27T18:34:00.278Z,39.60
2018-03-27T18:36:27.767Z,44.50
2018-03-27T18:38:56.042Z,43.60
2018-03-27T18:41:23.518Z,50.23
2018-03-27T18:43:51.063Z,39.23
2018-03-27T18:46:18.602Z,36.80
2018-03-27T18:48:46.092Z,33.43
2018-03-27T18:51:14.379Z,37.13
2018-03-27T18:53:41.901Z,37.50
2018-03-27T18:56:09.494Z,38.27
2018-03-27T18:58:37.000Z,26.50
2018-03-27T19:01:05.255Z,31.07
2018-03-27T19:03:32.764Z,33.47
2018-03-27T19:06:00.271Z,30.80
2018-03-27T19:08:27.771Z,34.20
2018-03-27T19:10:55.273Z,29.47
2018-03-27T19:13:22.757Z,29.17
2018-03-27T19:15:50.258Z,19.87
2018-03-27T19:18:17.764Z,20.30
2018-03-27T19:20:45.294Z,26.63
2018-03-27T19:23:12.851Z,27.63
2018-03-27T19:25:40.378Z,21.93
2018-03-27T19:28:07.927Z,27.63
2018-03-27T19:30:35.410Z,35.00
2018-03-27T19:33:02.929Z,25.10
2018-03-27T19:35:30.422Z,28.93
2018-03-27T19:37:58.710Z,22.10
2018-03-27T19:40:27.007Z,28.00
2018-03-27T19:42:54.548Z,25.90
2018-03-27T19:45:23.327Z,27.83
2018-03-27T19:47:51.668Z,28.00
2018-03-27T19:50:19.341Z,28.13
2018-03-27T19:52:47.826Z,26.63
2018-03-27T19:55:15.363Z,20.80
2018-03-27T19:57:43.773Z,21.43
2018-03-27T20:00:11.295Z,26.87
2018-03-27T20:02:38.833Z,22.00
2018-03-27T20:05:06.375Z,24.60
2018-03-27T20:07:33.936Z,21.67
2018-03-27T20:10:01.470Z,19.60
2018-03-27T20:12:29.777Z,17.00
2018-03-27T20:15:11.718Z,22.73
2018-03-27T20:17:40.259Z,25.23
2018-03-27T20:20:07.852Z,23.43
2018-03-27T20:22:42.426Z,23.00
2018-03-27T20:25:10.777Z,24.87
2018-03-27T20:27:38.527Z,20.77
2018-03-27T20:30:07.102Z,23.10
2018-03-27T20:32:38.157Z,22.87
2018-03-27T20:35:06.454Z,21.30
2018-03-27T20:37:33.998Z,20.87
2018-03-27T20:40:01.764Z,19.40
2018-03-27T20:42:30.001Z,21.23
2018-03-27T20:44:57.842Z,17.40
2018-03-27T20:47:25.412Z,17.07
2018-03-27T20:49:53.228Z,20.93
2018-03-27T20:52:20.734Z,16.73
2018-03-27T20:54:48.252Z,19.83
2018-03-27T20:57:15.783Z,20.60
2018-03-27T20:59:43.290Z,22.67
2018-03-27T21:02:11.581Z,20.00
2018-03-27T21:04:39.095Z,18.43
2018-03-27T21:07:06.822Z,16.27
2018-03-27T21:09:34.366Z,17.67
2018-03-27T21:12:01.881Z,17.60
2018-03-27T21:14:29.392Z,19.20
2018-03-27T21:16:56.901Z,19.70
2018-03-27T21:19:24.449Z,16.93
2018-03-27T21:21:52.739Z,19.07
2018-03-27T21:24:20.236Z,20.03
2018-03-27T21:26:47.752Z,21.27
2018-03-27T21:29:16.019Z,15.67
2018-03-27T21:31:43.555Z,24.63
2018-03-27T21:34:11.099Z,20.13
2018-03-27T21:36:38.662Z,23.10
2018-03-27T21:39:06.178Z,27.20
2018-03-27T21:41:34.424Z,23.73
2018-03-27T21:44:01.906Z,21.63
2018-03-27T21:46:30.211Z,19.53
2018-03-27T21:48:57.730Z,20.37
2018-03-27T21:51:25.549Z,18.27
2018-03-27T21:53:53.030Z,20.53
2018-03-27T21:56:20.524Z,20.00
2018-03-27T21:58:48.033Z,20.23
2018-03-27T22:01:15.508Z,18.33
2018-03-27T22:03:43.014Z,16.80
2018-03-27T22:06:10.501Z,18.80
2018-03-27T22:08:37.999Z,20.60
2018-03-27T22:11:05.839Z,20.93
2018-03-27T22:13:33.326Z,20.17
2018-03-27T22:16:01.601Z,17.53
2018-03-27T22:18:29.910Z,19.73
2018-03-27T22:20:57.745Z,16.40
2018-03-27T22:23:25.233Z,17.20
2018-03-27T22:25:52.720Z,17.77
2018-03-27T22:28:20.233Z,21.17
2018-03-27T22:30:48.475Z,18.97
2018-03-27T22:33:15.962Z,17.37
2018-03-27T22:35:44.243Z,20.10
2018-03-27T22:38:11.737Z,17.80
2018-03-27T22:40:40.203Z,18.37
2018-03-27T22:43:07.712Z,22.20
2018-03-27T22:45:35.957Z,18.10
2018-03-27T22:48:03.475Z,17.90
2018-03-27T22:50:31.314Z,18.93
2018-03-27T22:52:59.320Z,17.93
2018-03-27T22:55:27.345Z,19.57
2018-03-27T22:57:56.906Z,15.50
2018-03-27T23:00:24.453Z,17.73
2018-03-27T23:02:52.001Z,18.90
2018-03-27T23:05:20.413Z,15.50
2018-03-27T23:07:47.916Z,17.27
2018-03-27T23:10:15.404Z,22.13
2018-03-27T23:12:42.916Z,18.43
2018-03-27T23:15:10.422Z,15.80
2018-03-27T23:17:38.926Z,22.00
2018-03-27T23:20:06.456Z,18.87
2018-03-27T23:22:33.923Z,18.90
2018-03-27T23:25:01.525Z,18.87
2018-03-27T23:27:29.098Z,19.17
2018-03-27T23:29:56.624Z,20.17
2018-03-27T23:32:24.114Z,19.07
2018-03-27T23:34:51.687Z,18.30
2018-03-27T23:37:19.213Z,19.40
2018-03-27T23:39:46.748Z,24.10
2018-03-27T23:42:14.238Z,21.30
2018-03-27T23:44:41.725Z,17.03
2018-03-27T23:47:09.254Z,21.83
2018-03-27T23:49:36.764Z,20.20
2018-03-27T23:52:04.266Z,26.07
2018-03-27T23:54:31.811Z,18.03
2018-03-27T23:56:59.327Z,23.27
2018-03-27T23:59:26.858Z,20.47
